sensor_id;sensor_type;location;lat;lon;timestamp;P1;durP1;ratioP1;P2;durP2;ratioP2
19566;SDS011;9930;49.240;8.548;2023-04-30T00:00:04;5.03;;;4.63;;
19566;SDS011;9930;49.240;8.548;2023-04-30T00:02:34;5.40;;;5.00;;
19566;SDS011;9930;49.240;8.548;2023-04-30T00:05:00;5.90;;;5.40;;
19566;SDS011;9930;49.240;8.548;2023-04-30T00:07:26;5.40;;;4.90;;
19566;SDS011;9930;49.240;8.548;2023-04-30T00:09:54;5.00;;;4.60;;
19566;SDS011;9930;49.240;8.548;2023-04-30T00:12:22;5.40;;;4.93;;
19566;SDS011;9930;49.240;8.548;2023-04-30T00:14:53;5.90;;;5.40;;
19566;SDS011;9930;49.240;8.548;2023-04-30T00:17:20;5.80;;;5.30;;
19566;SDS011;9930;49.240;8.548;2023-04-30T00:19:46;6.10;;;5.60;;
19566;SDS011;9930;49.240;8.548;2023-04-30T00:22:14;6.28;;;5.30;;
19566;SDS011;9930;49.240;8.548;2023-04-30T00:24:39;6.00;;;5.40;;
19566;SDS011;9930;49.240;8.548;2023-04-30T00:27:07;6.00;;;5.50;;
19566;SDS011;9930;49.240;8.548;2023-04-30T00:29:33;5.85;;;5.35;;
19566;SDS011;9930;49.240;8.548;2023-04-30T00:32:01;5.68;;;5.20;;
19566;SDS011;9930;49.240;8.548;2023-04-30T00:34:30;5.32;;;4.93;;
19566;SDS011;9930;49.240;8.548;2023-04-30T00:37:00;5.85;;;5.28;;
19566;SDS011;9930;49.240;8.548;2023-04-30T00:39:26;5.63;;;5.13;;
19566;SDS011;9930;49.240;8.548;2023-04-30T00:41:54;8.73;;;7.82;;
19566;SDS011;9930;49.240;8.548;2023-04-30T00:44:32;6.30;;;5.80;;
19566;SDS011;9930;49.240;8.548;2023-04-30T00:46:57;22.73;;;17.55;;
19566;SDS011;9930;49.240;8.548;2023-04-30T00:49:25;9.90;;;8.68;;
19566;SDS011;9930;49.240;8.548;2023-04-30T00:51:51;9.18;;;7.65;;
19566;SDS011;9930;49.240;8.548;2023-04-30T00:54:21;6.10;;;5.60;;
19566;SDS011;9930;49.240;8.548;2023-04-30T00:56:50;5.70;;;5.20;;
19566;SDS011;9930;49.240;8.548;2023-04-30T00:59:18;6.10;;;5.60;;
19566;SDS011;9930;49.240;8.548;2023-04-30T01:01:47;5.85;;;5.35;;
19566;SDS011;9930;49.240;8.548;2023-04-30T01:04:15;5.97;;;5.47;;
19566;SDS011;9930;49.240;8.548;2023-04-30T01:06:41;5.18;;;4.78;;
19566;SDS011;9930;49.240;8.548;2023-04-30T01:09:07;6.05;;;5.43;;
19566;SDS011;9930;49.240;8.548;2023-04-30T01:11:55;5.97;;;5.47;;
19566;SDS011;9930;49.240;8.548;2023-04-30T01:15:03;6.00;;;5.40;;
19566;SDS011;9930;49.240;8.548;2023-04-30T01:20:18;6.78;;;6.18;;
19566;SDS011;9930;49.240;8.548;2023-04-30T01:26:14;6.20;;;5.70;;
19566;SDS011;9930;49.240;8.548;2023-04-30T01:29:14;6.07;;;5.57;;
19566;SDS011;9930;49.240;8.548;2023-04-30T01:31:46;6.65;;;6.05;;
19566;SDS011;9930;49.240;8.548;2023-04-30T01:34:11;6.53;;;6.03;;
19566;SDS011;9930;49.240;8.548;2023-04-30T01:36:54;6.35;;;5.85;;
19566;SDS011;9930;49.240;8.548;2023-04-30T01:39:34;5.75;;;5.25;;
19566;SDS011;9930;49.240;8.548;2023-04-30T01:42:41;5.85;;;5.35;;
19566;SDS011;9930;49.240;8.548;2023-04-30T01:54:01;6.57;;;5.97;;
19566;SDS011;9930;49.240;8.548;2023-04-30T01:56:40;6.15;;;5.65;;
19566;SDS011;9930;49.240;8.548;2023-04-30T01:59:26;5.82;;;5.32;;
19566;SDS011;9930;49.240;8.548;2023-04-30T02:01:54;5.85;;;5.35;;
19566;SDS011;9930;49.240;8.548;2023-04-30T02:04:27;6.20;;;5.65;;
19566;SDS011;9930;49.240;8.548;2023-04-30T02:06:54;6.20;;;5.60;;
19566;SDS011;9930;49.240;8.548;2023-04-30T02:09:25;6.20;;;5.70;;
19566;SDS011;9930;49.240;8.548;2023-04-30T02:11:52;5.95;;;5.40;;
19566;SDS011;9930;49.240;8.548;2023-04-30T02:14:24;6.32;;;5.72;;
19566;SDS011;9930;49.240;8.548;2023-04-30T02:16:50;5.82;;;5.32;;
19566;SDS011;9930;49.240;8.548;2023-04-30T02:19:15;5.70;;;5.20;;
19566;SDS011;9930;49.240;8.548;2023-04-30T02:21:41;5.70;;;5.20;;
19566;SDS011;9930;49.240;8.548;2023-04-30T02:24:06;5.95;;;5.45;;
19566;SDS011;9930;49.240;8.548;2023-04-30T02:26:35;6.10;;;5.60;;
19566;SDS011;9930;49.240;8.548;2023-04-30T02:29:00;6.00;;;5.50;;
19566;SDS011;9930;49.240;8.548;2023-04-30T02:31:26;6.10;;;5.57;;
19566;SDS011;9930;49.240;8.548;2023-04-30T02:33:52;6.22;;;5.63;;
19566;SDS011;9930;49.240;8.548;2023-04-30T02:36:25;5.82;;;5.32;;
19566;SDS011;9930;49.240;8.548;2023-04-30T02:38:54;5.57;;;5.18;;
19566;SDS011;9930;49.240;8.548;2023-04-30T02:41:24;5.20;;;4.70;;
19566;SDS011;9930;49.240;8.548;2023-04-30T02:43:56;4.93;;;4.53;;
19566;SDS011;9930;49.240;8.548;2023-04-30T02:46:21;5.15;;;4.63;;
19566;SDS011;9930;49.240;8.548;2023-04-30T02:48:52;5.07;;;4.68;;
19566;SDS011;9930;49.240;8.548;2023-04-30T02:51:23;5.07;;;4.68;;
19566;SDS011;9930;49.240;8.548;2023-04-30T02:53:50;5.47;;;4.97;;
19566;SDS011;9930;49.240;8.548;2023-04-30T02:56:16;5.40;;;4.90;;
19566;SDS011;9930;49.240;8.548;2023-04-30T02:58:45;5.28;;;4.88;;
19566;SDS011;9930;49.240;8.548;2023-04-30T03:01:11;5.32;;;4.85;;
19566;SDS011;9930;49.240;8.548;2023-04-30T03:03:42;6.30;;;5.28;;
19566;SDS011;9930;49.240;8.548;2023-04-30T03:06:10;5.25;;;4.80;;
19566;SDS011;9930;49.240;8.548;2023-04-30T03:08:38;5.47;;;5.00;;
19566;SDS011;9930;49.240;8.548;2023-04-30T03:11:09;5.57;;;5.07;;
19566;SDS011;9930;49.240;8.548;2023-04-30T03:13:36;5.45;;;4.82;;
19566;SDS011;9930;49.240;8.548;2023-04-30T03:16:05;5.57;;;5.18;;
19566;SDS011;9930;49.240;8.548;2023-04-30T03:18:35;5.43;;;4.93;;
19566;SDS011;9930;49.240;8.548;2023-04-30T03:21:01;5.50;;;5.00;;
19566;SDS011;9930;49.240;8.548;2023-04-30T03:23:29;5.72;;;5.22;;
19566;SDS011;9930;49.240;8.548;2023-04-30T03:25:55;5.00;;;4.53;;
19566;SDS011;9930;49.240;8.548;2023-04-30T03:28:22;5.95;;;5.40;;
19566;SDS011;9930;49.240;8.548;2023-04-30T03:30:51;5.65;;;5.15;;
19566;SDS011;9930;49.240;8.548;2023-04-30T03:33:17;6.50;;;5.90;;
19566;SDS011;9930;49.240;8.548;2023-04-30T03:35:42;6.15;;;5.55;;
19566;SDS011;9930;49.240;8.548;2023-04-30T03:38:11;6.28;;;5.68;;
19566;SDS011;9930;49.240;8.548;2023-04-30T03:40:39;7.03;;;6.43;;
19566;SDS011;9930;49.240;8.548;2023-04-30T03:43:04;6.47;;;5.90;;
19566;SDS011;9930;49.240;8.548;2023-04-30T03:45:35;6.07;;;5.57;;
19566;SDS011;9930;49.240;8.548;2023-04-30T03:48:12;6.40;;;5.82;;
19566;SDS011;9930;49.240;8.548;2023-04-30T03:51:04;6.18;;;5.57;;
19566;SDS011;9930;49.240;8.548;2023-04-30T03:53:29;5.97;;;5.47;;
19566;SDS011;9930;49.240;8.548;2023-04-30T03:55:55;5.78;;;5.28;;
19566;SDS011;9930;49.240;8.548;2023-04-30T03:58:21;6.75;;;5.82;;
19566;SDS011;9930;49.240;8.548;2023-04-30T04:00:50;5.80;;;5.30;;
19566;SDS011;9930;49.240;8.548;2023-04-30T04:03:17;5.85;;;5.38;;
19566;SDS011;9930;49.240;8.548;2023-04-30T04:05:43;5.93;;;5.30;;
19566;SDS011;9930;49.240;8.548;2023-04-30T04:08:08;5.32;;;4.93;;
19566;SDS011;9930;49.240;8.548;2023-04-30T04:10:34;5.90;;;5.40;;
19566;SDS011;9930;49.240;8.548;2023-04-30T04:13:00;5.55;;;5.15;;
19566;SDS011;9930;49.240;8.548;2023-04-30T04:15:26;5.50;;;5.00;;
19566;SDS011;9930;49.240;8.548;2023-04-30T04:17:52;5.95;;;5.35;;
19566;SDS011;9930;49.240;8.548;2023-04-30T04:20:20;5.03;;;4.63;;
19566;SDS011;9930;49.240;8.548;2023-04-30T04:22:46;5.55;;;5.05;;
19566;SDS011;9930;49.240;8.548;2023-04-30T04:25:11;5.03;;;4.57;;
19566;SDS011;9930;49.240;8.548;2023-04-30T04:27:42;5.90;;;5.40;;
19566;SDS011;9930;49.240;8.548;2023-04-30T04:30:10;5.20;;;4.70;;
19566;SDS011;9930;49.240;8.548;2023-04-30T04:32:36;5.28;;;4.78;;
19566;SDS011;9930;49.240;8.548;2023-04-30T04:35:12;5.00;;;4.60;;
19566;SDS011;9930;49.240;8.548;2023-04-30T04:37:39;5.32;;;4.93;;
19566;SDS011;9930;49.240;8.548;2023-04-30T04:40:07;5.40;;;4.90;;
19566;SDS011;9930;49.240;8.548;2023-04-30T04:42:36;5.40;;;4.90;;
19566;SDS011;9930;49.240;8.548;2023-04-30T04:45:03;5.60;;;5.10;;
19566;SDS011;9930;49.240;8.548;2023-04-30T04:47:34;5.15;;;4.75;;
19566;SDS011;9930;49.240;8.548;2023-04-30T04:50:00;6.47;;;5.13;;
19566;SDS011;9930;49.240;8.548;2023-04-30T04:52:26;5.05;;;4.65;;
19566;SDS011;9930;49.240;8.548;2023-04-30T04:54:54;5.57;;;5.07;;
19566;SDS011;9930;49.240;8.548;2023-04-30T04:57:20;5.30;;;4.80;;
19566;SDS011;9930;49.240;8.548;2023-04-30T04:59:46;4.95;;;4.55;;
19566;SDS011;9930;49.240;8.548;2023-04-30T05:02:13;5.30;;;4.90;;
19566;SDS011;9930;49.240;8.548;2023-04-30T05:04:39;5.30;;;4.90;;
19566;SDS011;9930;49.240;8.548;2023-04-30T05:07:06;5.35;;;4.95;;
19566;SDS011;9930;49.240;8.548;2023-04-30T05:09:34;6.43;;;5.68;;
19566;SDS011;9930;49.240;8.548;2023-04-30T05:12:05;5.65;;;5.20;;
19566;SDS011;9930;49.240;8.548;2023-04-30T05:14:30;5.80;;;5.30;;
19566;SDS011;9930;49.240;8.548;2023-04-30T05:16:56;5.63;;;5.13;;
19566;SDS011;9930;49.240;8.548;2023-04-30T05:19:25;6.03;;;5.53;;
19566;SDS011;9930;49.240;8.548;2023-04-30T05:21:51;5.10;;;4.70;;
19566;SDS011;9930;49.240;8.548;2023-04-30T05:24:17;5.18;;;4.78;;
19566;SDS011;9930;49.240;8.548;2023-04-30T05:26:45;5.40;;;5.00;;
19566;SDS011;9930;49.240;8.548;2023-04-30T05:29:11;5.43;;;4.93;;
19566;SDS011;9930;49.240;8.548;2023-04-30T05:31:37;5.60;;;5.20;;
19566;SDS011;9930;49.240;8.548;2023-04-30T05:34:02;5.78;;;5.28;;
19566;SDS011;9930;49.240;8.548;2023-04-30T05:36:30;6.30;;;5.50;;
19566;SDS011;9930;49.240;8.548;2023-04-30T05:38:56;6.00;;;5.50;;
19566;SDS011;9930;49.240;8.548;2023-04-30T05:41:22;5.93;;;5.45;;
19566;SDS011;9930;49.240;8.548;2023-04-30T05:43:49;6.20;;;5.70;;
19566;SDS011;9930;49.240;8.548;2023-04-30T05:46:15;5.80;;;5.30;;
19566;SDS011;9930;49.240;8.548;2023-04-30T05:48:41;5.75;;;5.30;;
19566;SDS011;9930;49.240;8.548;2023-04-30T05:51:06;5.80;;;5.28;;
19566;SDS011;9930;49.240;8.548;2023-04-30T05:53:33;5.68;;;5.18;;
19566;SDS011;9930;49.240;8.548;2023-04-30T05:56:01;6.00;;;5.50;;
19566;SDS011;9930;49.240;8.548;2023-04-30T05:58:27;6.22;;;5.72;;
19566;SDS011;9930;49.240;8.548;2023-04-30T06:00:53;6.35;;;5.85;;
19566;SDS011;9930;49.240;8.548;2023-04-30T06:03:21;6.20;;;5.72;;
19566;SDS011;9930;49.240;8.548;2023-04-30T06:05:47;6.03;;;5.40;;
19566;SDS011;9930;49.240;8.548;2023-04-30T06:08:15;5.88;;;5.38;;
19566;SDS011;9930;49.240;8.548;2023-04-30T06:10:43;6.30;;;5.80;;
19566;SDS011;9930;49.240;8.548;2023-04-30T06:13:09;6.05;;;5.55;;
19566;SDS011;9930;49.240;8.548;2023-04-30T06:15:34;6.53;;;5.93;;
19566;SDS011;9930;49.240;8.548;2023-04-30T06:18:02;6.72;;;6.13;;
19566;SDS011;9930;49.240;8.548;2023-04-30T06:20:28;6.70;;;6.20;;
19566;SDS011;9930;49.240;8.548;2023-04-30T06:22:56;6.35;;;5.75;;
19566;SDS011;9930;49.240;8.548;2023-04-30T06:25:22;7.00;;;6.40;;
19566;SDS011;9930;49.240;8.548;2023-04-30T06:27:48;6.10;;;5.60;;
19566;SDS011;9930;49.240;8.548;2023-04-30T06:30:18;6.15;;;5.45;;
19566;SDS011;9930;49.240;8.548;2023-04-30T06:32:44;6.40;;;5.90;;
19566;SDS011;9930;49.240;8.548;2023-04-30T06:35:12;5.70;;;5.30;;
19566;SDS011;9930;49.240;8.548;2023-04-30T06:37:42;6.97;;;6.28;;
19566;SDS011;9930;49.240;8.548;2023-04-30T06:40:13;6.93;;;6.32;;
19566;SDS011;9930;49.240;8.548;2023-04-30T06:42:41;6.80;;;6.30;;
19566;SDS011;9930;49.240;8.548;2023-04-30T06:45:06;6.95;;;6.25;;
19566;SDS011;9930;49.240;8.548;2023-04-30T06:47:33;6.50;;;5.90;;
19566;SDS011;9930;49.240;8.548;2023-04-30T06:50:01;6.38;;;5.78;;
19566;SDS011;9930;49.240;8.548;2023-04-30T06:52:31;7.00;;;6.25;;
19566;SDS011;9930;49.240;8.548;2023-04-30T06:54:59;7.10;;;6.50;;
19566;SDS011;9930;49.240;8.548;2023-04-30T06:57:26;6.78;;;6.18;;
19566;SDS011;9930;49.240;8.548;2023-04-30T06:59:52;7.00;;;6.32;;
19566;SDS011;9930;49.240;8.548;2023-04-30T07:02:21;6.55;;;5.93;;
19566;SDS011;9930;49.240;8.548;2023-04-30T07:04:50;6.75;;;6.10;;
19566;SDS011;9930;49.240;8.548;2023-04-30T07:07:15;6.65;;;6.05;;
19566;SDS011;9930;49.240;8.548;2023-04-30T07:09:41;6.20;;;5.70;;
19566;SDS011;9930;49.240;8.548;2023-04-30T07:12:07;6.25;;;5.65;;
19566;SDS011;9930;49.240;8.548;2023-04-30T07:14:32;5.78;;;5.18;;
19566;SDS011;9930;49.240;8.548;2023-04-30T07:16:58;6.35;;;5.75;;
19566;SDS011;9930;49.240;8.548;2023-04-30T07:19:26;6.80;;;6.25;;
19566;SDS011;9930;49.240;8.548;2023-04-30T07:21:52;6.20;;;5.70;;
19566;SDS011;9930;49.240;8.548;2023-04-30T07:24:24;6.57;;;6.07;;
19566;SDS011;9930;49.240;8.548;2023-04-30T07:26:50;6.60;;;6.00;;
19566;SDS011;9930;49.240;8.548;2023-04-30T07:29:16;6.22;;;5.72;;
19566;SDS011;9930;49.240;8.548;2023-04-30T07:31:42;7.57;;;6.85;;
19566;SDS011;9930;49.240;8.548;2023-04-30T07:34:08;6.30;;;5.72;;
19566;SDS011;9930;49.240;8.548;2023-04-30T07:36:33;6.38;;;5.88;;
19566;SDS011;9930;49.240;8.548;2023-04-30T07:39:05;6.72;;;6.22;;
19566;SDS011;9930;49.240;8.548;2023-04-30T07:41:31;7.78;;;7.07;;
19566;SDS011;9930;49.240;8.548;2023-04-30T07:43:57;6.70;;;6.20;;
19566;SDS011;9930;49.240;8.548;2023-04-30T07:46:26;7.03;;;6.32;;
19566;SDS011;9930;49.240;8.548;2023-04-30T07:48:52;6.35;;;5.75;;
19566;SDS011;9930;49.240;8.548;2023-04-30T07:51:19;5.32;;;4.88;;
19566;SDS011;9930;49.240;8.548;2023-04-30T07:53:45;6.05;;;5.55;;
19566;SDS011;9930;49.240;8.548;2023-04-30T07:56:13;5.93;;;5.50;;
19566;SDS011;9930;49.240;8.548;2023-04-30T07:58:41;5.38;;;4.97;;
19566;SDS011;9930;49.240;8.548;2023-04-30T08:01:06;6.13;;;5.63;;
19566;SDS011;9930;49.240;8.548;2023-04-30T08:03:32;6.03;;;5.55;;
19566;SDS011;9930;49.240;8.548;2023-04-30T08:05:58;5.95;;;5.45;;
19566;SDS011;9930;49.240;8.548;2023-04-30T08:08:23;5.80;;;5.30;;
19566;SDS011;9930;49.240;8.548;2023-04-30T08:10:49;5.57;;;5.10;;
19566;SDS011;9930;49.240;8.548;2023-04-30T08:13:15;5.97;;;5.47;;
19566;SDS011;9930;49.240;8.548;2023-04-30T08:15:44;5.80;;;5.30;;
19566;SDS011;9930;49.240;8.548;2023-04-30T08:18:10;5.07;;;4.68;;
19566;SDS011;9930;49.240;8.548;2023-04-30T08:20:36;5.05;;;4.65;;
19566;SDS011;9930;49.240;8.548;2023-04-30T08:23:01;5.47;;;5.00;;
19566;SDS011;9930;49.240;8.548;2023-04-30T08:25:27;8.05;;;4.78;;
19566;SDS011;9930;49.240;8.548;2023-04-30T08:27:53;4.75;;;4.40;;
19566;SDS011;9930;49.240;8.548;2023-04-30T08:30:22;5.70;;;5.18;;
19566;SDS011;9930;49.240;8.548;2023-04-30T08:32:57;5.30;;;4.75;;
19566;SDS011;9930;49.240;8.548;2023-04-30T08:35:23;5.07;;;4.68;;
19566;SDS011;9930;49.240;8.548;2023-04-30T08:37:50;4.53;;;4.22;;
19566;SDS011;9930;49.240;8.548;2023-04-30T08:40:17;4.53;;;4.15;;
19566;SDS011;9930;49.240;8.548;2023-04-30T08:42:49;4.70;;;4.30;;
19566;SDS011;9930;49.240;8.548;2023-04-30T08:45:30;4.47;;;3.80;;
19566;SDS011;9930;49.240;8.548;2023-04-30T08:47:57;4.70;;;4.30;;
19566;SDS011;9930;49.240;8.548;2023-04-30T08:50:29;4.63;;;4.32;;
19566;SDS011;9930;49.240;8.548;2023-04-30T08:52:59;4.93;;;4.40;;
19566;SDS011;9930;49.240;8.548;2023-04-30T08:55:26;4.47;;;4.05;;
19566;SDS011;9930;49.240;8.548;2023-04-30T08:57:52;4.15;;;3.75;;
19566;SDS011;9930;49.240;8.548;2023-04-30T09:00:19;5.72;;;5.22;;
19566;SDS011;9930;49.240;8.548;2023-04-30T09:02:47;10.05;;;9.07;;
19566;SDS011;9930;49.240;8.548;2023-04-30T09:05:14;6.32;;;5.57;;
19566;SDS011;9930;49.240;8.548;2023-04-30T09:07:43;4.65;;;4.25;;
19566;SDS011;9930;49.240;8.548;2023-04-30T09:12:42;3.72;;;3.42;;
19566;SDS011;9930;49.240;8.548;2023-04-30T09:15:26;3.78;;;3.47;;
19566;SDS011;9930;49.240;8.548;2023-04-30T09:20:57;3.50;;;3.20;;
19566;SDS011;9930;49.240;8.548;2023-04-30T09:23:27;2.95;;;2.75;;
19566;SDS011;9930;49.240;8.548;2023-04-30T09:25:55;3.15;;;2.95;;
19566;SDS011;9930;49.240;8.548;2023-04-30T09:28:23;3.30;;;2.97;;
19566;SDS011;9930;49.240;8.548;2023-04-30T09:30:52;3.35;;;3.15;;
19566;SDS011;9930;49.240;8.548;2023-04-30T09:33:26;2.95;;;2.75;;
19566;SDS011;9930;49.240;8.548;2023-04-30T09:35:59;3.05;;;2.78;;
19566;SDS011;9930;49.240;8.548;2023-04-30T09:38:33;2.75;;;2.55;;
19566;SDS011;9930;49.240;8.548;2023-04-30T09:40:59;2.90;;;2.70;;
19566;SDS011;9930;49.240;8.548;2023-04-30T09:43:28;3.22;;;2.90;;
19566;SDS011;9930;49.240;8.548;2023-04-30T09:45:57;2.70;;;2.50;;
19566;SDS011;9930;49.240;8.548;2023-04-30T09:48:25;2.88;;;2.67;;
19566;SDS011;9930;49.240;8.548;2023-04-30T09:50:55;3.30;;;3.00;;
19566;SDS011;9930;49.240;8.548;2023-04-30T09:53:22;2.78;;;2.58;;
19566;SDS011;9930;49.240;8.548;2023-04-30T09:55:53;3.00;;;2.80;;
19566;SDS011;9930;49.240;8.548;2023-04-30T09:58:24;3.05;;;2.78;;
19566;SDS011;9930;49.240;8.548;2023-04-30T10:00:54;3.25;;;2.72;;
19566;SDS011;9930;49.240;8.548;2023-04-30T10:03:25;2.85;;;2.50;;
19566;SDS011;9930;49.240;8.548;2023-04-30T10:05:55;2.67;;;2.47;;
19566;SDS011;9930;49.240;8.548;2023-04-30T10:08:29;2.55;;;2.35;;
19566;SDS011;9930;49.240;8.548;2023-04-30T10:11:04;2.70;;;2.50;;
19566;SDS011;9930;49.240;8.548;2023-04-30T10:16:42;2.70;;;2.50;;
19566;SDS011;9930;49.240;8.548;2023-04-30T10:19:22;2.97;;;2.67;;
19566;SDS011;9930;49.240;8.548;2023-04-30T10:21:56;2.90;;;2.60;;
19566;SDS011;9930;49.240;8.548;2023-04-30T10:24:25;2.60;;;2.40;;
19566;SDS011;9930;49.240;8.548;2023-04-30T10:26:55;2.55;;;2.38;;
19566;SDS011;9930;49.240;8.548;2023-04-30T10:29:22;2.90;;;2.30;;
19566;SDS011;9930;49.240;8.548;2023-04-30T10:31:50;3.08;;;2.40;;
19566;SDS011;9930;49.240;8.548;2023-04-30T10:40:00;2.70;;;2.50;;
19566;SDS011;9930;49.240;8.548;2023-04-30T10:42:29;3.22;;;2.92;;
19566;SDS011;9930;49.240;8.548;2023-04-30T10:44:55;2.47;;;2.28;;
19566;SDS011;9930;49.240;8.548;2023-04-30T10:47:26;2.83;;;2.63;;
19566;SDS011;9930;49.240;8.548;2023-04-30T10:50:04;2.55;;;2.35;;
19566;SDS011;9930;49.240;8.548;2023-04-30T10:52:33;2.55;;;2.35;;
19566;SDS011;9930;49.240;8.548;2023-04-30T10:55:08;2.60;;;2.40;;
19566;SDS011;9930;49.240;8.548;2023-04-30T10:57:41;2.65;;;2.45;;
19566;SDS011;9930;49.240;8.548;2023-04-30T11:02:43;2.70;;;2.50;;
19566;SDS011;9930;49.240;8.548;2023-04-30T11:05:14;2.50;;;2.30;;
19566;SDS011;9930;49.240;8.548;2023-04-30T11:10:24;2.22;;;2.03;;
19566;SDS011;9930;49.240;8.548;2023-04-30T11:12:58;2.60;;;2.35;;
19566;SDS011;9930;49.240;8.548;2023-04-30T11:15:40;2.80;;;2.60;;
19566;SDS011;9930;49.240;8.548;2023-04-30T11:18:09;2.60;;;2.40;;
19566;SDS011;9930;49.240;8.548;2023-04-30T11:20:48;2.90;;;2.60;;
19566;SDS011;9930;49.240;8.548;2023-04-30T11:23:21;2.90;;;2.70;;
19566;SDS011;9930;49.240;8.548;2023-04-30T11:25:59;2.35;;;2.15;;
19566;SDS011;9930;49.240;8.548;2023-04-30T11:28:31;2.90;;;2.58;;
19566;SDS011;9930;49.240;8.548;2023-04-30T11:30:59;2.80;;;2.60;;
19566;SDS011;9930;49.240;8.548;2023-04-30T11:33:28;2.78;;;2.58;;
19566;SDS011;9930;49.240;8.548;2023-04-30T11:35:58;2.33;;;2.13;;
19566;SDS011;9930;49.240;8.548;2023-04-30T11:38:29;2.55;;;2.35;;
19566;SDS011;9930;49.240;8.548;2023-04-30T11:41:00;2.67;;;2.47;;
19566;SDS011;9930;49.240;8.548;2023-04-30T11:43:30;2.53;;;2.30;;
19566;SDS011;9930;49.240;8.548;2023-04-30T11:46:10;2.80;;;2.60;;
19566;SDS011;9930;49.240;8.548;2023-04-30T11:48:42;2.63;;;2.30;;
19566;SDS011;9930;49.240;8.548;2023-04-30T11:51:13;2.53;;;2.40;;
19566;SDS011;9930;49.240;8.548;2023-04-30T11:53:48;3.85;;;2.50;;
19566;SDS011;9930;49.240;8.548;2023-04-30T11:56:21;3.00;;;2.42;;
19566;SDS011;9930;49.240;8.548;2023-04-30T11:58:51;2.53;;;2.35;;
19566;SDS011;9930;49.240;8.548;2023-04-30T12:01:20;2.58;;;2.38;;
19566;SDS011;9930;49.240;8.548;2023-04-30T12:03:49;2.50;;;2.30;;
19566;SDS011;9930;49.240;8.548;2023-04-30T12:06:21;2.60;;;2.40;;
19566;SDS011;9930;49.240;8.548;2023-04-30T12:08:55;2.85;;;2.65;;
19566;SDS011;9930;49.240;8.548;2023-04-30T12:14:00;2.30;;;2.20;;
19566;SDS011;9930;49.240;8.548;2023-04-30T12:16:38;2.95;;;2.75;;
19566;SDS011;9930;49.240;8.548;2023-04-30T12:19:15;2.72;;;2.53;;
19566;SDS011;9930;49.240;8.548;2023-04-30T12:21:49;2.60;;;2.40;;
19566;SDS011;9930;49.240;8.548;2023-04-30T12:24:21;2.50;;;2.30;;
19566;SDS011;9930;49.240;8.548;2023-04-30T12:26:51;2.38;;;2.17;;
19566;SDS011;9930;49.240;8.548;2023-04-30T12:29:17;2.67;;;2.47;;
19566;SDS011;9930;49.240;8.548;2023-04-30T12:31:44;2.33;;;2.17;;
19566;SDS011;9930;49.240;8.548;2023-04-30T12:34:13;2.75;;;2.35;;
19566;SDS011;9930;49.240;8.548;2023-04-30T12:36:40;2.38;;;2.17;;
19566;SDS011;9930;49.240;8.548;2023-04-30T12:39:10;3.03;;;2.72;;
19566;SDS011;9930;49.240;8.548;2023-04-30T12:41:43;2.75;;;2.55;;
19566;SDS011;9930;49.240;8.548;2023-04-30T12:46:49;2.63;;;2.42;;
19566;SDS011;9930;49.240;8.548;2023-04-30T12:52:10;2.45;;;2.25;;
19566;SDS011;9930;49.240;8.548;2023-04-30T12:54:37;2.60;;;2.40;;
19566;SDS011;9930;49.240;8.548;2023-04-30T12:57:05;2.38;;;2.17;;
19566;SDS011;9930;49.240;8.548;2023-04-30T12:59:36;2.15;;;2.05;;
19566;SDS011;9930;49.240;8.548;2023-04-30T13:02:04;3.00;;;2.67;;
19566;SDS011;9930;49.240;8.548;2023-04-30T13:04:34;2.17;;;1.98;;
19566;SDS011;9930;49.240;8.548;2023-04-30T13:07:00;2.40;;;2.20;;
19566;SDS011;9930;49.240;8.548;2023-04-30T13:09:29;3.00;;;2.70;;
19566;SDS011;9930;49.240;8.548;2023-04-30T13:12:02;2.10;;;2.00;;
19566;SDS011;9930;49.240;8.548;2023-04-30T13:14:32;2.58;;;2.38;;
19566;SDS011;9930;49.240;8.548;2023-04-30T13:17:02;2.15;;;1.98;;
19566;SDS011;9930;49.240;8.548;2023-04-30T13:19:29;2.60;;;2.40;;
19566;SDS011;9930;49.240;8.548;2023-04-30T13:21:56;2.58;;;2.13;;
19566;SDS011;9930;49.240;8.548;2023-04-30T13:24:23;1.70;;;1.60;;
19566;SDS011;9930;49.240;8.548;2023-04-30T13:26:51;2.22;;;2.03;;
19566;SDS011;9930;49.240;8.548;2023-04-30T13:29:16;2.30;;;2.10;;
19566;SDS011;9930;49.240;8.548;2023-04-30T13:31:47;2.72;;;2.50;;
19566;SDS011;9930;49.240;8.548;2023-04-30T13:34:15;2.20;;;2.00;;
19566;SDS011;9930;49.240;8.548;2023-04-30T13:36:43;2.40;;;2.20;;
19566;SDS011;9930;49.240;8.548;2023-04-30T13:39:10;2.17;;;2.05;;
19566;SDS011;9930;49.240;8.548;2023-04-30T13:41:41;2.03;;;1.90;;
19566;SDS011;9930;49.240;8.548;2023-04-30T13:44:06;2.47;;;2.28;;
19566;SDS011;9930;49.240;8.548;2023-04-30T13:46:35;2.28;;;2.05;;
19566;SDS011;9930;49.240;8.548;2023-04-30T13:49:00;2.40;;;2.20;;
19566;SDS011;9930;49.240;8.548;2023-04-30T13:51:33;2.17;;;1.98;;
19566;SDS011;9930;49.240;8.548;2023-04-30T13:54:01;2.00;;;1.90;;
19566;SDS011;9930;49.240;8.548;2023-04-30T13:56:26;2.10;;;2.00;;
19566;SDS011;9930;49.240;8.548;2023-04-30T13:58:53;2.00;;;1.90;;
19566;SDS011;9930;49.240;8.548;2023-04-30T14:01:21;2.80;;;2.60;;
19566;SDS011;9930;49.240;8.548;2023-04-30T14:03:52;2.65;;;2.13;;
19566;SDS011;9930;49.240;8.548;2023-04-30T14:06:17;2.10;;;2.00;;
19566;SDS011;9930;49.240;8.548;2023-04-30T14:08:48;3.40;;;2.15;;
19566;SDS011;9930;49.240;8.548;2023-04-30T14:11:14;2.35;;;2.15;;
19566;SDS011;9930;49.240;8.548;2023-04-30T14:13:39;2.17;;;1.98;;
19566;SDS011;9930;49.240;8.548;2023-04-30T14:16:05;2.20;;;1.75;;
19566;SDS011;9930;49.240;8.548;2023-04-30T14:18:33;2.13;;;1.92;;
19566;SDS011;9930;49.240;8.548;2023-04-30T14:21:04;2.53;;;2.10;;
19566;SDS011;9930;49.240;8.548;2023-04-30T14:23:32;2.45;;;1.85;;
19566;SDS011;9930;49.240;8.548;2023-04-30T14:26:00;2.60;;;1.98;;
19566;SDS011;9930;49.240;8.548;2023-04-30T14:28:25;2.03;;;1.80;;
19566;SDS011;9930;49.240;8.548;2023-04-30T14:30:51;2.35;;;2.20;;
19566;SDS011;9930;49.240;8.548;2023-04-30T14:33:17;1.95;;;1.80;;
19566;SDS011;9930;49.240;8.548;2023-04-30T14:35:43;2.00;;;1.85;;
19566;SDS011;9930;49.240;8.548;2023-04-30T14:38:09;2.10;;;1.80;;
19566;SDS011;9930;49.240;8.548;2023-04-30T14:40:35;2.00;;;1.90;;
19566;SDS011;9930;49.240;8.548;2023-04-30T14:43:01;2.10;;;1.90;;
19566;SDS011;9930;49.240;8.548;2023-04-30T14:45:26;2.00;;;1.90;;
19566;SDS011;9930;49.240;8.548;2023-04-30T14:47:57;2.60;;;2.30;;
19566;SDS011;9930;49.240;8.548;2023-04-30T14:50:22;2.00;;;1.90;;
19566;SDS011;9930;49.240;8.548;2023-04-30T14:52:55;1.83;;;1.73;;
19566;SDS011;9930;49.240;8.548;2023-04-30T14:55:22;2.13;;;2.03;;
19566;SDS011;9930;49.240;8.548;2023-04-30T14:57:50;1.80;;;1.70;;
19566;SDS011;9930;49.240;8.548;2023-04-30T15:00:18;1.65;;;1.55;;
19566;SDS011;9930;49.240;8.548;2023-04-30T15:02:46;2.05;;;1.77;;
19566;SDS011;9930;49.240;8.548;2023-04-30T15:05:12;1.90;;;1.80;;
19566;SDS011;9930;49.240;8.548;2023-04-30T15:07:40;1.98;;;1.88;;
19566;SDS011;9930;49.240;8.548;2023-04-30T15:10:08;2.17;;;1.98;;
19566;SDS011;9930;49.240;8.548;2023-04-30T15:12:36;2.15;;;1.95;;
19566;SDS011;9930;49.240;8.548;2023-04-30T15:15:05;2.30;;;2.10;;
19566;SDS011;9930;49.240;8.548;2023-04-30T15:17:32;2.80;;;2.42;;
19566;SDS011;9930;49.240;8.548;2023-04-30T15:20:03;2.35;;;1.83;;
19566;SDS011;9930;49.240;8.548;2023-04-30T15:22:32;1.98;;;1.88;;
19566;SDS011;9930;49.240;8.548;2023-04-30T15:24:58;2.00;;;1.90;;
19566;SDS011;9930;49.240;8.548;2023-04-30T15:27:26;2.03;;;1.83;;
19566;SDS011;9930;49.240;8.548;2023-04-30T15:29:52;2.15;;;1.80;;
19566;SDS011;9930;49.240;8.548;2023-04-30T15:32:20;1.90;;;1.80;;
19566;SDS011;9930;49.240;8.548;2023-04-30T15:34:49;2.90;;;2.60;;
19566;SDS011;9930;49.240;8.548;2023-04-30T15:37:17;3.20;;;2.90;;
19566;SDS011;9930;49.240;8.548;2023-04-30T15:39:42;2.80;;;2.60;;
19566;SDS011;9930;49.240;8.548;2023-04-30T15:42:08;3.22;;;2.92;;
19566;SDS011;9930;49.240;8.548;2023-04-30T15:44:34;4.25;;;2.80;;
19566;SDS011;9930;49.240;8.548;2023-04-30T15:47:02;2.25;;;2.05;;
19566;SDS011;9930;49.240;8.548;2023-04-30T15:49:30;2.55;;;2.20;;
19566;SDS011;9930;49.240;8.548;2023-04-30T15:51:58;2.30;;;2.10;;